Time;durP1;ratioP1;P1;durP2;ratioP2;P2;SDS_P1;SDS_P2;PMS_P1;PMS_P2;Temp;Humidity;BMP_temperature;BMP_pressure;BME280_temperature;BME280_humidity;BME280_pressure;Samples;Min_cycle;Max_cycle;Signal;HPM_P1;HPM_P2
2022/03/09 00:01:30;;;;;;;21.52;11.95;;;;;;;;;;5080672;28;20036;-46
2022/03/09 00:03:57;;;;;;;29.55;12.60;;;;;;;;;;5083731;28;20073;-47
2022/03/09 00:06:23;;;;;;;23.30;12.57;;;;;;;;;;5080458;28;20035;-45
2022/03/09 00:08:49;;;;;;;25.05;13.43;;;;;;;;;;5082263;28;20166;-46
2022/03/09 00:11:15;;;;;;;23.75;13.25;;;;;;;;;;5088468;28;20103;-49
2022/03/09 00:13:41;;;;;;;28.20;12.18;;;;;;;;;;5088426;28;20032;-47
2022/03/09 00:16:07;;;;;;;24.25;12.48;;;;;;;;;;5083614;28;20438;-49
2022/03/09 00:18:33;;;;;;;22.15;12.27;;;;;;;;;;5076659;28;20085;-48
2022/03/09 00:20:59;;;;;;;24.92;12.02;;;;;;;;;;5082815;28;20040;-49
2022/03/09 00:23:25;;;;;;;24.52;12.50;;;;;;;;;;5075961;28;20036;-47
2022/03/09 00:25:51;;;;;;;27.75;13.02;;;;;;;;;;5080041;28;20029;-46
2022/03/09 00:28:17;;;;;;;24.40;12.70;;;;;;;;;;5088030;28;20033;-47
2022/03/09 00:30:43;;;;;;;23.70;12.77;;;;;;;;;;5088778;28;20440;-47
2022/03/09 00:33:08;;;;;;;29.15;14.30;;;;;;;;;;5080658;28;20039;-46
2022/03/09 00:35:38;;;;;;;28.92;14.32;;;;;;;;;;5082734;28;20169;-47
2022/03/09 00:38:04;;;;;;;26.63;13.82;;;;;;;;;;5078516;28;20024;-47
2022/03/09 00:40:30;;;;;;;27.08;13.80;;;;;;;;;;5086664;28;20085;-47
2022/03/09 00:42:56;;;;;;;28.20;12.80;;;;;;;;;;5091590;28;20051;-47
2022/03/09 00:45:22;;;;;;;23.02;12.63;;;;;;;;;;5086828;28;20035;-49
2022/03/09 00:47:48;;;;;;;29.70;14.05;;;;;;;;;;5091639;28;20372;-48
2022/03/09 00:50:14;;;;;;;24.92;13.32;;;;;;;;;;5080329;28;20090;-47
2022/03/09 00:52:40;;;;;;;27.13;13.65;;;;;;;;;;5087101;28;20142;-46
2022/03/09 00:55:07;;;;;;;27.45;13.48;;;;;;;;;;5087917;28;20063;-46
2022/03/09 00:57:33;;;;;;;28.02;14.52;;;;;;;;;;5077804;28;20364;-47
2022/03/09 00:59:59;;;;;;;27.95;13.98;;;;;;;;;;5079688;28;20534;-49
2022/03/09 01:02:25;;;;;;;24.70;12.80;;;;;;;;;;5083116;28;20032;-47
2022/03/09 01:04:51;;;;;;;28.40;13.93;;;;;;;;;;5075444;28;20107;-47
2022/03/09 01:07:17;;;;;;;25.08;13.25;;;;;;;;;;5086555;28;20103;-47
2022/03/09 01:09:43;;;;;;;26.30;13.18;;;;;;;;;;5081100;28;20030;-47
2022/03/09 01:12:09;;;;;;;25.75;13.02;;;;;;;;;;5087745;28;20036;-46
2022/03/09 01:14:35;;;;;;;26.77;14.02;;;;;;;;;;5086696;28;20023;-47
2022/03/09 01:17:01;;;;;;;27.70;12.90;;;;;;;;;;5080596;28;20019;-48
2022/03/09 01:19:27;;;;;;;27.58;13.30;;;;;;;;;;5082819;28;20118;-48
2022/03/09 01:21:53;;;;;;;24.65;11.85;;;;;;;;;;5083492;28;20028;-49
2022/03/09 01:24:19;;;;;;;24.58;12.55;;;;;;;;;;5078245;28;20031;-47
2022/03/09 01:26:45;;;;;;;25.30;12.55;;;;;;;;;;5079470;28;20024;-50
2022/03/09 01:29:11;;;;;;;24.08;13.82;;;;;;;;;;5088270;28;20023;-50
2022/03/09 01:31:37;;;;;;;22.48;12.55;;;;;;;;;;5082604;28;20023;-47
2022/03/09 01:34:03;;;;;;;24.60;11.40;;;;;;;;;;5080361;28;20054;-46
2022/03/09 01:36:29;;;;;;;22.52;12.48;;;;;;;;;;5076961;28;20032;-50
2022/03/09 01:38:55;;;;;;;23.00;11.55;;;;;;;;;;5078964;28;20043;-47
2022/03/09 01:41:21;;;;;;;20.17;12.93;;;;;;;;;;5085305;28;20024;-50
2022/03/09 01:44:06;;;;;;;24.45;12.43;;;;;;;;;;5084075;28;20029;-46
2022/03/09 01:46:32;;;;;;;23.67;12.35;;;;;;;;;;5081854;28;20039;-50
2022/03/09 01:48:58;;;;;;;23.98;12.00;;;;;;;;;;5089167;28;20392;-49
2022/03/09 01:51:25;;;;;;;21.55;10.88;;;;;;;;;;5083623;28;20024;-48
2022/03/09 01:53:51;;;;;;;23.73;12.75;;;;;;;;;;5080941;28;20024;-47
2022/03/09 01:56:17;;;;;;;23.45;11.38;;;;;;;;;;5072091;28;20366;-48
2022/03/09 01:58:43;;;;;;;23.33;11.10;;;;;;;;;;5079807;28;20123;-46
2022/03/09 02:01:09;;;;;;;21.35;10.70;;;;;;;;;;5080169;28;20127;-50
2022/03/09 02:03:36;;;;;;;23.33;11.50;;;;;;;;;;5086862;28;20716;-48
2022/03/09 02:06:02;;;;;;;28.13;11.73;;;;;;;;;;5071943;28;20081;-47
2022/03/09 02:11:13;;;;;;;26.33;13.30;;;;;;;;;;5075872;28;20179;-47
2022/03/09 02:13:39;;;;;;;23.60;12.07;;;;;;;;;;5085417;28;20123;-47
2022/03/09 02:16:06;;;;;;;21.25;12.15;;;;;;;;;;5077613;28;20075;-47
2022/03/09 02:18:32;;;;;;;20.25;12.00;;;;;;;;;;5080292;28;20024;-47
2022/03/09 02:20:59;;;;;;;20.23;11.88;;;;;;;;;;5084670;28;20111;-48
2022/03/09 02:23:25;;;;;;;23.00;11.18;;;;;;;;;;5083979;28;20027;-48
2022/03/09 02:25:51;;;;;;;25.38;12.55;;;;;;;;;;5085511;28;20035;-47
2022/03/09 02:28:17;;;;;;;23.42;11.32;;;;;;;;;;5077418;28;20039;-49
2022/03/09 02:30:43;;;;;;;21.85;11.88;;;;;;;;;;5075031;28;20029;-49
2022/03/09 02:33:10;;;;;;;22.70;11.68;;;;;;;;;;5081840;28;20121;-47
2022/03/09 02:35:36;;;;;;;21.23;11.82;;;;;;;;;;5080618;28;20490;-48
2022/03/09 02:38:02;;;;;;;19.80;11.27;;;;;;;;;;5083870;28;20101;-50
2022/03/09 02:40:28;;;;;;;22.67;11.27;;;;;;;;;;5077016;28;20064;-47
2022/03/09 02:42:54;;;;;;;21.83;11.38;;;;;;;;;;5085620;28;20051;-47
2022/03/09 02:45:20;;;;;;;21.52;10.73;;;;;;;;;;5081277;28;20032;-47
2022/03/09 02:47:46;;;;;;;22.30;10.80;;;;;;;;;;5077761;28;20429;-47
2022/03/09 02:50:15;;;;;;;22.30;10.13;;;;;;;;;;5075168;28;20028;-47
2022/03/09 02:52:42;;;;;;;18.67;9.63;;;;;;;;;;5087707;28;20395;-46
2022/03/09 02:55:08;;;;;;;16.83;9.15;;;;;;;;;;5084350;28;20444;-47
2022/03/09 02:57:35;;;;;;;16.83;9.57;;;;;;;;;;5087124;28;20039;-47
2022/03/09 03:00:00;;;;;;;16.80;9.85;;;;;;;;;;5071176;28;20016;-48
2022/03/09 03:02:26;;;;;;;20.00;10.32;;;;;;;;;;5078354;28;20035;-47
2022/03/09 03:04:52;;;;;;;16.67;10.43;;;;;;;;;;5089041;28;20064;-47
2022/03/09 03:07:18;;;;;;;18.88;10.23;;;;;;;;;;5083342;28;20024;-47
2022/03/09 03:09:44;;;;;;;21.63;11.43;;;;;;;;;;5077273;28;20046;-47
2022/03/09 03:12:10;;;;;;;21.73;10.93;;;;;;;;;;5088945;28;20111;-47
2022/03/09 03:14:36;;;;;;;21.85;11.07;;;;;;;;;;5084355;28;20144;-48
2022/03/09 03:17:02;;;;;;;19.13;10.63;;;;;;;;;;5077900;28;20043;-50
2022/03/09 03:19:28;;;;;;;20.38;10.50;;;;;;;;;;5082166;28;20504;-46
2022/03/09 03:21:54;;;;;;;17.45;9.45;;;;;;;;;;5087596;28;20070;-47
2022/03/09 03:24:20;;;;;;;17.92;10.23;;;;;;;;;;5086879;28;20039;-48
2022/03/09 03:26:46;;;;;;;16.50;9.90;;;;;;;;;;5080862;28;20028;-48
2022/03/09 03:29:12;;;;;;;20.55;10.50;;;;;;;;;;5086152;28;20033;-49
2022/03/09 03:31:38;;;;;;;16.95;9.43;;;;;;;;;;5075367;28;20103;-52
2022/03/09 03:34:04;;;;;;;16.70;9.98;;;;;;;;;;5084502;28;20066;-49
2022/03/09 03:36:30;;;;;;;18.83;10.40;;;;;;;;;;5085948;28;20419;-48
2022/03/09 03:38:56;;;;;;;17.02;9.75;;;;;;;;;;5076740;28;20048;-48
2022/03/09 03:41:22;;;;;;;16.75;9.75;;;;;;;;;;5076626;28;20021;-46
2022/03/09 03:43:48;;;;;;;19.42;10.63;;;;;;;;;;5083989;28;20368;-47
2022/03/09 03:46:14;;;;;;;17.33;10.07;;;;;;;;;;5088432;28;20039;-47
2022/03/09 03:48:40;;;;;;;18.63;9.85;;;;;;;;;;5089859;28;20028;-47
2022/03/09 03:51:06;;;;;;;20.73;10.73;;;;;;;;;;5083031;28;20028;-47
2022/03/09 03:53:32;;;;;;;18.38;10.02;;;;;;;;;;5078466;28;20123;-48
2022/03/09 03:55:59;;;;;;;17.65;10.70;;;;;;;;;;5084618;28;20060;-48
2022/03/09 03:58:25;;;;;;;24.95;10.85;;;;;;;;;;5081251;28;20021;-48
2022/03/09 04:00:51;;;;;;;19.35;10.43;;;;;;;;;;5082824;28;20066;-48
2022/03/09 04:03:17;;;;;;;17.00;10.43;;;;;;;;;;5083963;28;20032;-49
2022/03/09 04:05:43;;;;;;;15.23;8.10;;;;;;;;;;5080971;28;20449;-47
2022/03/09 04:08:09;;;;;;;17.60;9.30;;;;;;;;;;5084728;28;20031;-48
2022/03/09 04:10:35;;;;;;;13.82;7.65;;;;;;;;;;5081387;28;20039;-47
2022/03/09 04:13:03;;;;;;;20.38;8.65;;;;;;;;;;5078234;28;20016;-50
2022/03/09 04:15:30;;;;;;;13.13;8.00;;;;;;;;;;5081790;28;20538;-47
2022/03/09 04:17:55;;;;;;;16.65;8.48;;;;;;;;;;5090984;28;20111;-47
2022/03/09 04:20:21;;;;;;;16.05;9.02;;;;;;;;;;5079099;28;20020;-48
2022/03/09 04:22:47;;;;;;;13.60;8.52;;;;;;;;;;5087676;28;20118;-46
2022/03/09 04:25:13;;;;;;;15.00;8.63;;;;;;;;;;5088622;28;20029;-49
2022/03/09 04:27:40;;;;;;;15.35;8.23;;;;;;;;;;5079838;28;20430;-47
2022/03/09 04:30:06;;;;;;;18.55;9.65;;;;;;;;;;5075992;28;20044;-47
2022/03/09 04:32:34;;;;;;;15.68;8.80;;;;;;;;;;5075864;28;20039;-48
2022/03/09 04:35:00;;;;;;;13.77;8.02;;;;;;;;;;5081000;28;20039;-45
2022/03/09 04:37:30;;;;;;;17.90;9.35;;;;;;;;;;5075805;28;20388;-45
2022/03/09 04:39:56;;;;;;;16.13;9.05;;;;;;;;;;5079573;28;20028;-47
2022/03/09 04:42:22;;;;;;;16.50;8.48;;;;;;;;;;5072674;28;20039;-47
2022/03/09 04:44:48;;;;;;;20.08;9.02;;;;;;;;;;5082219;28;20027;-47
2022/03/09 04:47:14;;;;;;;14.05;8.55;;;;;;;;;;5074650;28;20032;-47
2022/03/09 04:49:40;;;;;;;22.20;8.82;;;;;;;;;;5081306;28;20036;-51
2022/03/09 04:52:06;;;;;;;19.50;9.18;;;;;;;;;;5086016;28;20472;-50
2022/03/09 04:54:32;;;;;;;16.65;8.25;;;;;;;;;;5088153;28;20428;-47
2022/03/09 04:56:58;;;;;;;15.80;8.23;;;;;;;;;;5077313;28;20032;-47
2022/03/09 04:59:24;;;;;;;15.52;8.38;;;;;;;;;;5078693;28;20025;-49
2022/03/09 05:01:50;;;;;;;15.70;9.02;;;;;;;;;;5073962;28;20036;-52
2022/03/09 05:04:16;;;;;;;16.23;8.60;;;;;;;;;;5082534;28;20499;-48
2022/03/09 05:06:42;;;;;;;17.92;8.13;;;;;;;;;;5078218;28;20063;-46
2022/03/09 05:09:08;;;;;;;15.07;8.38;;;;;;;;;;5079317;28;20451;-47
2022/03/09 05:11:34;;;;;;;15.73;8.77;;;;;;;;;;5076880;28;20032;-48
2022/03/09 05:14:00;;;;;;;14.60;8.75;;;;;;;;;;5080386;28;20039;-48
2022/03/09 05:16:25;;;;;;;16.48;9.13;;;;;;;;;;5084844;28;20043;-47
2022/03/09 05:18:51;;;;;;;14.93;8.43;;;;;;;;;;5086386;28;20404;-47
2022/03/09 05:21:17;;;;;;;14.65;8.95;;;;;;;;;;5079148;28;20036;-47
2022/03/09 05:23:43;;;;;;;15.30;8.27;;;;;;;;;;5090987;28;20109;-46
2022/03/09 05:26:09;;;;;;;17.85;8.52;;;;;;;;;;5086469;28;20043;-47
2022/03/09 05:28:35;;;;;;;18.08;8.77;;;;;;;;;;5084285;28;20024;-47
2022/03/09 05:31:01;;;;;;;16.70;8.50;;;;;;;;;;5072954;28;20052;-47
2022/03/09 05:33:27;;;;;;;16.40;8.57;;;;;;;;;;5088665;28;20371;-49
2022/03/09 05:35:53;;;;;;;12.43;7.90;;;;;;;;;;5082600;28;20032;-49
2022/03/09 05:38:19;;;;;;;16.08;7.72;;;;;;;;;;5090605;28;20107;-46
2022/03/09 05:40:45;;;;;;;17.50;8.40;;;;;;;;;;5088886;28;20125;-48
2022/03/09 05:43:11;;;;;;;14.18;8.00;;;;;;;;;;5086343;28;20033;-47
2022/03/09 05:45:37;;;;;;;14.48;7.90;;;;;;;;;;5081720;28;20111;-49
2022/03/09 05:48:04;;;;;;;19.13;9.15;;;;;;;;;;5074773;28;20100;-47
2022/03/09 05:50:30;;;;;;;14.98;9.05;;;;;;;;;;5075439;28;20016;-51
2022/03/09 05:52:56;;;;;;;19.98;10.05;;;;;;;;;;5079509;28;20425;-47
2022/03/09 05:55:22;;;;;;;16.92;10.13;;;;;;;;;;5080816;28;20042;-47
2022/03/09 05:57:48;;;;;;;18.63;10.18;;;;;;;;;;5085978;28;20602;-47
2022/03/09 06:00:15;;;;;;;15.63;9.07;;;;;;;;;;5075848;28;20025;-47
2022/03/09 06:02:41;;;;;;;15.65;8.90;;;;;;;;;;5073388;28;20032;-47
2022/03/09 06:05:07;;;;;;;17.52;8.98;;;;;;;;;;5071048;28;20043;-47
2022/03/09 06:07:33;;;;;;;17.98;9.63;;;;;;;;;;5083599;28;20028;-47
2022/03/09 06:09:59;;;;;;;17.00;9.10;;;;;;;;;;5088265;28;20024;-47
2022/03/09 06:12:25;;;;;;;15.48;9.20;;;;;;;;;;5071128;28;20048;-47
2022/03/09 06:14:51;;;;;;;21.17;10.23;;;;;;;;;;5075832;28;20036;-47
2022/03/09 06:17:17;;;;;;;20.63;9.80;;;;;;;;;;5076450;28;20040;-47
2022/03/09 06:19:43;;;;;;;22.45;9.75;;;;;;;;;;5080993;28;20024;-47
2022/03/09 06:22:09;;;;;;;18.50;9.70;;;;;;;;;;5077366;28;20468;-48
2022/03/09 06:24:35;;;;;;;16.88;9.25;;;;;;;;;;5089246;28;20032;-51
2022/03/09 06:27:01;;;;;;;18.58;9.68;;;;;;;;;;5076267;28;20361;-53
2022/03/09 06:29:27;;;;;;;22.90;10.70;;;;;;;;;;5084927;28;20073;-47
2022/03/09 06:31:53;;;;;;;15.52;9.10;;;;;;;;;;5084307;28;20506;-50
2022/03/09 06:34:19;;;;;;;15.88;9.23;;;;;;;;;;5085302;28;20090;-49
2022/03/09 06:36:45;;;;;;;14.57;9.15;;;;;;;;;;5078806;28;20035;-48
2022/03/09 06:39:12;;;;;;;21.05;9.80;;;;;;;;;;5086014;28;20021;-47
2022/03/09 06:41:38;;;;;;;24.75;10.52;;;;;;;;;;5082983;28;20029;-47
2022/03/09 06:44:05;;;;;;;18.67;9.30;;;;;;;;;;5090667;28;20017;-47
2022/03/09 06:46:31;;;;;;;18.38;10.23;;;;;;;;;;5085021;28;20054;-47
2022/03/09 06:48:57;;;;;;;18.73;9.88;;;;;;;;;;5081035;28;20036;-47
2022/03/09 06:51:22;;;;;;;20.90;9.95;;;;;;;;;;5078849;28;20020;-47
2022/03/09 06:53:48;;;;;;;19.83;10.27;;;;;;;;;;5078503;28;20032;-47
2022/03/09 06:56:15;;;;;;;14.80;9.70;;;;;;;;;;5085900;28;20032;-47
2022/03/09 06:58:41;;;;;;;21.35;10.32;;;;;;;;;;5086128;28;20024;-47
2022/03/09 07:01:07;;;;;;;18.58;9.93;;;;;;;;;;5087392;28;20031;-48
2022/03/09 07:03:33;;;;;;;20.35;10.50;;;;;;;;;;5090393;28;20484;-49
2022/03/09 07:05:59;;;;;;;20.30;10.95;;;;;;;;;;5083393;28;20435;-47
2022/03/09 07:08:25;;;;;;;20.00;10.88;;;;;;;;;;5085077;28;20020;-52
2022/03/09 07:10:51;;;;;;;20.02;10.23;;;;;;;;;;5084965;28;20071;-49
2022/03/09 07:13:17;;;;;;;19.85;10.85;;;;;;;;;;5083847;28;20498;-50
2022/03/09 07:15:43;;;;;;;21.67;10.88;;;;;;;;;;5089597;28;20071;-48
2022/03/09 07:18:09;;;;;;;21.80;11.23;;;;;;;;;;5087598;28;20036;-48
2022/03/09 07:20:35;;;;;;;21.33;11.70;;;;;;;;;;5086832;28;20029;-47
2022/03/09 07:23:01;;;;;;;23.08;11.75;;;;;;;;;;5091320;28;20047;-47
2022/03/09 07:25:27;;;;;;;23.00;12.13;;;;;;;;;;5085589;28;20111;-47
2022/03/09 07:27:53;;;;;;;25.75;12.40;;;;;;;;;;5085983;28;20044;-48
2022/03/09 07:30:19;;;;;;;26.05;12.55;;;;;;;;;;5086963;28;20024;-46
2022/03/09 07:32:45;;;;;;;24.27;13.85;;;;;;;;;;5080797;28;20029;-47
2022/03/09 07:35:11;;;;;;;24.23;12.63;;;;;;;;;;5083326;28;20032;-47
2022/03/09 07:37:37;;;;;;;30.58;14.50;;;;;;;;;;5082036;28;20032;-48
2022/03/09 07:40:07;;;;;;;27.30;16.00;;;;;;;;;;5084657;28;20028;-47
2022/03/09 07:42:33;;;;;;;34.08;15.80;;;;;;;;;;5085642;28;20043;-48
2022/03/09 07:45:00;;;;;;;27.88;13.73;;;;;;;;;;5079877;28;20028;-47
2022/03/09 07:47:26;;;;;;;26.92;13.27;;;;;;;;;;5083119;28;20480;-47
2022/03/09 07:49:52;;;;;;;26.88;13.57;;;;;;;;;;5087784;28;20040;-47
2022/03/09 07:52:18;;;;;;;24.33;13.10;;;;;;;;;;5086660;28;20044;-48
2022/03/09 07:54:43;;;;;;;21.58;12.13;;;;;;;;;;5083291;28;20028;-48
2022/03/09 07:57:09;;;;;;;22.35;11.35;;;;;;;;;;5089951;28;20511;-48
2022/03/09 07:59:35;;;;;;;19.25;9.65;;;;;;;;;;5082954;28;20040;-47
2022/03/09 08:02:01;;;;;;;16.83;9.85;;;;;;;;;;5084394;28;20063;-49
2022/03/09 08:04:27;;;;;;;20.80;10.32;;;;;;;;;;5084014;28;20526;-49
2022/03/09 08:06:54;;;;;;;17.88;8.80;;;;;;;;;;5086493;28;20028;-47
2022/03/09 08:09:20;;;;;;;20.15;8.43;;;;;;;;;;5075975;28;20500;-47
2022/03/09 08:11:47;;;;;;;12.52;7.75;;;;;;;;;;5085235;28;20028;-47
2022/03/09 08:14:15;;;;;;;18.75;7.50;;;;;;;;;;5080562;28;20036;-45
2022/03/09 08:16:41;;;;;;;13.18;7.57;;;;;;;;;;5077350;28;20063;-47
2022/03/09 08:19:07;;;;;;;11.32;6.55;;;;;;;;;;5079688;28;20128;-46
2022/03/09 08:21:33;;;;;;;12.18;6.28;;;;;;;;;;5081129;28;20021;-47
2022/03/09 08:23:59;;;;;;;9.88;5.35;;;;;;;;;;5085313;28;20384;-45
2022/03/09 08:26:25;;;;;;;12.98;5.40;;;;;;;;;;5086823;28;20028;-51
2022/03/09 08:28:51;;;;;;;11.65;5.15;;;;;;;;;;5077786;28;20020;-45
2022/03/09 08:31:17;;;;;;;8.80;4.82;;;;;;;;;;5079723;28;20027;-46
2022/03/09 08:33:44;;;;;;;10.32;5.03;;;;;;;;;;5078040;28;20028;-45
2022/03/09 08:36:13;;;;;;;7.60;4.22;;;;;;;;;;5074998;28;20036;-46
2022/03/09 08:38:39;;;;;;;10.25;4.80;;;;;;;;;;5079325;28;20025;-45
2022/03/09 08:41:05;;;;;;;8.95;3.70;;;;;;;;;;5075663;28;20382;-45
2022/03/09 08:43:31;;;;;;;12.95;3.88;;;;;;;;;;5076789;28;20032;-48
2022/03/09 08:45:57;;;;;;;6.88;3.85;;;;;;;;;;5083409;28;20028;-48
2022/03/09 08:48:26;;;;;;;13.93;4.93;;;;;;;;;;5080222;28;20036;-48
2022/03/09 08:50:52;;;;;;;9.07;4.28;;;;;;;;;;5078468;28;20020;-47
2022/03/09 08:53:18;;;;;;;7.95;3.97;;;;;;;;;;5078912;28;20044;-46
2022/03/09 08:55:44;;;;;;;9.50;4.13;;;;;;;;;;5084781;28;20089;-46
2022/03/09 08:58:10;;;;;;;7.85;3.78;;;;;;;;;;5078530;28;20035;-49
2022/03/09 09:00:36;;;;;;;12.35;4.38;;;;;;;;;;5076049;28;20028;-45
2022/03/09 09:03:02;;;;;;;7.63;3.70;;;;;;;;;;5079570;28;20094;-49
2022/03/09 09:05:28;;;;;;;8.00;3.20;;;;;;;;;;5078916;28;20056;-45
2022/03/09 09:07:54;;;;;;;8.32;3.28;;;;;;;;;;5084840;28;20027;-46
2022/03/09 09:10:20;;;;;;;6.47;3.22;;;;;;;;;;5088759;28;20066;-49
2022/03/09 09:12:46;;;;;;;7.15;3.30;;;;;;;;;;5086340;28;20511;-45
2022/03/09 09:15:12;;;;;;;6.15;3.60;;;;;;;;;;5085386;28;20039;-46
2022/03/09 09:17:38;;;;;;;6.65;3.00;;;;;;;;;;5083449;28;20035;-46
2022/03/09 09:20:05;;;;;;;6.82;3.88;;;;;;;;;;5087887;28;20481;-46
2022/03/09 09:22:31;;;;;;;7.43;3.38;;;;;;;;;;5087619;28;20040;-47
2022/03/09 09:24:57;;;;;;;5.80;3.17;;;;;;;;;;5087760;28;20081;-46
2022/03/09 09:27:23;;;;;;;5.75;2.88;;;;;;;;;;5079575;28;20028;-45
2022/03/09 09:29:49;;;;;;;6.80;3.17;;;;;;;;;;5084035;28;20408;-45
2022/03/09 09:32:16;;;;;;;5.82;3.17;;;;;;;;;;5083278;28;20078;-47
2022/03/09 09:34:42;;;;;;;5.35;2.65;;;;;;;;;;5088616;28;20033;-46
2022/03/09 09:37:08;;;;;;;4.80;2.55;;;;;;;;;;5077628;28;20020;-47
2022/03/09 09:39:34;;;;;;;7.38;2.95;;;;;;;;;;5081835;28;20115;-49
2022/03/09 09:42:00;;;;;;;4.90;2.05;;;;;;;;;;5085855;28;20088;-47
2022/03/09 09:44:26;;;;;;;5.35;2.40;;;;;;;;;;5087710;28;20042;-45
2022/03/09 09:46:53;;;;;;;7.97;3.05;;;;;;;;;;5081211;28;20017;-47
2022/03/09 09:49:24;;;;;;;5.85;2.60;;;;;;;;;;5084418;28;20024;-45
2022/03/09 09:51:50;;;;;;;6.35;2.83;;;;;;;;;;5087070;28;20156;-45
2022/03/09 09:54:16;;;;;;;5.22;2.55;;;;;;;;;;5083535;28;20495;-47
2022/03/09 09:56:43;;;;;;;3.83;1.75;;;;;;;;;;5088633;28;20047;-47
2022/03/09 09:59:09;;;;;;;4.88;2.15;;;;;;;;;;5089614;28;20110;-46
2022/03/09 10:01:35;;;;;;;3.92;1.92;;;;;;;;;;5079917;28;20066;-46
2022/03/09 10:04:02;;;;;;;2.95;1.50;;;;;;;;;;5085828;28;20480;-46
2022/03/09 10:06:28;;;;;;;2.92;1.70;;;;;;;;;;5085133;28;20082;-46
2022/03/09 10:09:04;;;;;;;2.95;1.63;;;;;;;;;;5084052;28;20380;-46
2022/03/09 10:11:46;;;;;;;3.67;1.92;;;;;;;;;;5089089;28;20111;-45
2022/03/09 10:14:12;;;;;;;5.90;2.28;;;;;;;;;;5087496;28;20030;-47
2022/03/09 10:16:38;;;;;;;7.53;2.05;;;;;;;;;;5078343;28;20032;-46
2022/03/09 10:19:04;;;;;;;4.22;2.10;;;;;;;;;;5089786;28;20054;-46
2022/03/09 10:21:35;;;;;;;8.13;2.10;;;;;;;;;;5089511;28;20468;-49
2022/03/09 10:24:03;;;;;;;5.45;1.80;;;;;;;;;;5081225;28;20059;-47
2022/03/09 10:26:44;;;;;;;3.80;1.70;;;;;;;;;;5089254;28;20035;-48
2022/03/09 10:29:10;;;;;;;7.72;2.70;;;;;;;;;;5083215;28;20020;-47
2022/03/09 10:31:37;;;;;;;8.80;3.30;;;;;;;;;;5083570;28;20701;-47
2022/03/09 10:34:07;;;;;;;3.30;1.63;;;;;;;;;;5092938;28;20028;-46
2022/03/09 10:36:33;;;;;;;5.38;2.40;;;;;;;;;;5076888;28;20028;-49
2022/03/09 10:39:16;;;;;;;5.32;2.67;;;;;;;;;;5084768;28;20115;-50
2022/03/09 10:41:42;;;;;;;7.28;2.38;;;;;;;;;;5085478;28;20024;-48
2022/03/09 10:44:08;;;;;;;4.90;1.80;;;;;;;;;;5091455;28;20393;-48
2022/03/09 10:46:44;;;;;;;5.30;2.03;;;;;;;;;;5088011;28;20043;-48
2022/03/09 10:49:12;;;;;;;3.85;1.98;;;;;;;;;;5088502;28;20421;-48
2022/03/09 10:51:40;;;;;;;5.68;2.17;;;;;;;;;;5085640;28;20024;-49
2022/03/09 10:54:22;;;;;;;3.03;1.42;;;;;;;;;;5087498;28;20099;-46
2022/03/09 10:56:48;;;;;;;4.57;1.90;;;;;;;;;;5086609;28;20381;-47
2022/03/09 10:59:24;;;;;;;2.90;1.77;;;;;;;;;;5088584;28;20039;-50
2022/03/09 11:02:09;;;;;;;2.83;1.80;;;;;;;;;;5085925;28;20039;-47
2022/03/09 11:04:36;;;;;;;4.60;1.92;;;;;;;;;;5091041;28;20061;-47
2022/03/09 11:07:02;;;;;;;2.92;1.63;;;;;;;;;;5080213;28;20476;-49
2022/03/09 11:09:29;;;;;;;4.30;1.63;;;;;;;;;;5085725;28;20036;-46
2022/03/09 11:11:56;;;;;;;3.88;1.90;;;;;;;;;;5081937;28;20365;-48
2022/03/09 11:14:26;;;;;;;4.95;2.65;;;;;;;;;;5083590;28;20077;-46
2022/03/09 11:16:53;;;;;;;4.53;2.00;;;;;;;;;;5088426;28;20024;-48
2022/03/09 11:19:20;;;;;;;3.72;1.90;;;;;;;;;;5081050;28;20447;-48
2022/03/09 11:21:47;;;;;;;3.60;2.00;;;;;;;;;;5078424;28;20032;-48
2022/03/09 11:24:14;;;;;;;4.65;2.20;;;;;;;;;;5082454;28;20040;-48
2022/03/09 11:26:47;;;;;;;2.75;1.80;;;;;;;;;;5092230;28;20020;-47
2022/03/09 11:29:13;;;;;;;5.25;2.65;;;;;;;;;;5092263;28;20032;-48
2022/03/09 11:31:50;;;;;;;5.03;2.15;;;;;;;;;;5081074;28;20052;-47
2022/03/09 11:34:32;;;;;;;4.45;2.47;;;;;;;;;;5083642;28;20024;-48
2022/03/09 11:36:59;;;;;;;3.17;1.98;;;;;;;;;;5084849;28;20082;-49
2022/03/09 11:39:26;;;;;;;3.35;1.88;;;;;;;;;;5079516;28;20035;-48
2022/03/09 11:42:10;;;;;;;5.93;1.98;;;;;;;;;;5086684;28;20062;-47
2022/03/09 11:44:39;;;;;;;4.22;2.15;;;;;;;;;;5083761;28;20123;-50
2022/03/09 11:47:06;;;;;;;4.03;2.28;;;;;;;;;;5084751;28;20028;-47
2022/03/09 11:49:34;;;;;;;4.60;2.17;;;;;;;;;;5094445;28;20480;-47
2022/03/09 11:52:11;;;;;;;2.90;1.52;;;;;;;;;;5082139;28;20079;-46
2022/03/09 11:54:40;;;;;;;2.90;1.67;;;;;;;;;;5085147;28;20036;-46
2022/03/09 11:57:07;;;;;;;4.43;2.10;;;;;;;;;;5078053;28;20028;-47
2022/03/09 11:59:33;;;;;;;4.20;2.50;;;;;;;;;;5086756;28;20055;-47
2022/03/09 12:01:59;;;;;;;4.35;2.22;;;;;;;;;;5077531;28;20437;-47
2022/03/09 12:04:42;;;;;;;5.60;2.22;;;;;;;;;;5094178;28;20122;-49
2022/03/09 12:07:08;;;;;;;5.33;2.50;;;;;;;;;;5090705;28;20016;-47
2022/03/09 12:09:53;;;;;;;5.53;2.35;;;;;;;;;;5082832;28;20426;-47
2022/03/09 12:12:19;;;;;;;4.63;2.28;;;;;;;;;;5076537;28;20467;-46
2022/03/09 12:15:05;;;;;;;4.22;2.28;;;;;;;;;;5079478;28;20060;-48
2022/03/09 12:17:31;;;;;;;4.80;2.42;;;;;;;;;;5087207;28;20028;-48
2022/03/09 12:20:17;;;;;;;4.53;2.10;;;;;;;;;;5086994;28;20103;-47
2022/03/09 12:23:01;;;;;;;4.78;2.30;;;;;;;;;;5083159;28;20028;-47
2022/03/09 12:25:43;;;;;;;4.15;1.88;;;;;;;;;;5091465;28;20040;-47
2022/03/09 12:28:25;;;;;;;4.13;2.22;;;;;;;;;;5074161;28;21683;-47
2022/03/09 12:30:56;;;;;;;4.00;2.13;;;;;;;;;;5081423;28;20113;-48
2022/03/09 12:33:25;;;;;;;3.95;1.90;;;;;;;;;;5083630;28;20024;-46
2022/03/09 12:35:52;;;;;;;4.10;2.00;;;;;;;;;;5091632;28;20024;-46
2022/03/09 12:38:18;;;;;;;4.65;1.95;;;;;;;;;;5086412;28;20032;-46
2022/03/09 12:40:47;;;;;;;4.75;2.17;;;;;;;;;;5084392;28;20033;-47
2022/03/09 12:43:13;;;;;;;6.70;2.25;;;;;;;;;;5081125;28;20044;-49
2022/03/09 12:45:55;;;;;;;4.65;2.05;;;;;;;;;;5083841;28;20026;-46
2022/03/09 12:48:22;;;;;;;4.03;2.08;;;;;;;;;;5089441;28;20105;-47
2022/03/09 12:50:48;;;;;;;3.45;1.60;;;;;;;;;;5090799;28;20432;-47
2022/03/09 12:53:19;;;;;;;4.03;2.20;;;;;;;;;;5086320;28;20048;-47
2022/03/09 12:55:46;;;;;;;3.25;1.55;;;;;;;;;;5082960;28;20106;-48
2022/03/09 12:58:11;;;;;;;4.93;2.20;;;;;;;;;;5079689;28;20035;-49
2022/03/09 13:00:37;;;;;;;4.32;2.08;;;;;;;;;;5077226;28;20033;-49
2022/03/09 13:03:09;;;;;;;4.70;1.83;;;;;;;;;;5085840;28;20028;-46
2022/03/09 13:05:36;;;;;;;5.13;1.85;;;;;;;;;;5088021;28;20115;-51
2022/03/09 13:08:03;;;;;;;5.57;1.92;;;;;;;;;;5082803;28;20028;-48
2022/03/09 13:10:30;;;;;;;7.28;2.17;;;;;;;;;;5075692;28;20024;-50
2022/03/09 13:13:00;;;;;;;3.42;1.83;;;;;;;;;;5076299;28;20028;-48
2022/03/09 13:15:35;;;;;;;5.30;2.20;;;;;;;;;;5078972;28;20044;-48
2022/03/09 13:18:01;;;;;;;5.03;2.35;;;;;;;;;;5084592;28;20024;-49
2022/03/09 13:20:27;;;;;;;4.45;1.80;;;;;;;;;;5075338;28;20379;-47
2022/03/09 13:22:53;;;;;;;4.95;2.40;;;;;;;;;;5075150;28;20020;-47
2022/03/09 13:25:19;;;;;;;5.53;2.00;;;;;;;;;;5090192;28;20036;-46
2022/03/09 13:27:45;;;;;;;4.88;2.33;;;;;;;;;;5079989;28;20384;-48
2022/03/09 13:30:15;;;;;;;4.53;1.85;;;;;;;;;;5082188;28;20044;-46
2022/03/09 13:32:41;;;;;;;5.75;1.88;;;;;;;;;;5076818;28;20031;-46
2022/03/09 13:35:08;;;;;;;4.15;2.13;;;;;;;;;;5081909;28;20055;-49
2022/03/09 13:37:38;;;;;;;5.20;2.28;;;;;;;;;;5078532;28;20032;-48
2022/03/09 13:40:06;;;;;;;5.30;2.35;;;;;;;;;;5081591;28;20016;-46
2022/03/09 13:42:36;;;;;;;4.85;2.20;;;;;;;;;;5077460;28;20040;-46
2022/03/09 13:45:07;;;;;;;5.07;2.47;;;;;;;;;;5080180;28;20024;-48
2022/03/09 13:47:45;;;;;;;3.63;1.90;;;;;;;;;;5075557;28;20422;-46
2022/03/09 13:50:25;;;;;;;4.50;2.20;;;;;;;;;;5090312;28;20465;-47
2022/03/09 13:52:52;;;;;;;5.35;2.20;;;;;;;;;;5078171;28;20055;-47
2022/03/09 13:55:26;;;;;;;5.18;2.08;;;;;;;;;;5077590;28;20062;-46
2022/03/09 13:57:59;;;;;;;7.32;2.50;;;;;;;;;;5082033;28;20062;-47
2022/03/09 14:00:30;;;;;;;4.43;2.05;;;;;;;;;;5081208;28;20100;-45
2022/03/09 14:02:57;;;;;;;4.95;1.70;;;;;;;;;;5074944;28;20028;-51
2022/03/09 14:05:29;;;;;;;7.07;2.35;;;;;;;;;;5084704;28;20036;-49
2022/03/09 14:07:55;;;;;;;4.88;2.30;;;;;;;;;;5076810;28;20031;-46
2022/03/09 14:10:26;;;;;;;4.22;2.10;;;;;;;;;;5078230;28;20029;-50
2022/03/09 14:12:53;;;;;;;5.35;2.20;;;;;;;;;;5078277;28;20372;-46
2022/03/09 14:15:19;;;;;;;5.70;2.35;;;;;;;;;;5082969;28;20032;-46
2022/03/09 14:17:45;;;;;;;8.00;2.47;;;;;;;;;;5083474;28;20422;-49
2022/03/09 14:20:12;;;;;;;4.78;2.17;;;;;;;;;;5082740;28;20060;-49
2022/03/09 14:22:48;;;;;;;4.63;2.25;;;;;;;;;;5089277;28;20024;-50
2022/03/09 14:25:15;;;;;;;5.60;2.28;;;;;;;;;;5081808;28;20034;-50
2022/03/09 14:27:41;;;;;;;4.32;1.95;;;;;;;;;;5083723;28;20028;-48
2022/03/09 14:30:09;;;;;;;5.90;2.35;;;;;;;;;;5078785;28;20120;-46
2022/03/09 14:32:35;;;;;;;5.35;1.95;;;;;;;;;;5080436;28;20028;-47
2022/03/09 14:35:01;;;;;;;5.45;2.15;;;;;;;;;;5079169;28;20028;-48